createdAt,value
2022-08-07T00:01:44.355Z,4.18
2022-08-07T00:04:45.351Z,4.40
2022-08-07T00:07:48.529Z,4.23
2022-08-07T00:11:00.879Z,4.28
2022-08-07T00:14:09.327Z,4.22
2022-08-07T00:17:13.840Z,4.32
2022-08-07T00:20:29.804Z,4.07
2022-08-07T00:23:39.559Z,4.23
2022-08-07T00:26:58.743Z,4.20
2022-08-07T00:30:06.325Z,4.55
2022-08-07T00:33:28.876Z,4.25
2022-08-07T00:36:35.696Z,4.05
2022-08-07T00:39:45.077Z,4.40
2022-08-07T00:42:50.272Z,4.05
2022-08-07T00:45:55.319Z,3.58
2022-08-07T00:49:03.146Z,4.15
2022-08-07T00:52:07.279Z,4.25
2022-08-07T00:55:12.761Z,4.10
2022-08-07T00:58:21.438Z,4.30
2022-08-07T01:01:24.495Z,4.05
2022-08-07T01:04:27.285Z,3.60
2022-08-07T01:07:35.211Z,3.92
2022-08-07T01:10:39.375Z,4.17
2022-08-07T01:13:55.635Z,3.45
2022-08-07T01:17:00.238Z,3.50
2022-08-07T01:20:10.263Z,3.90
2022-08-07T01:23:19.793Z,3.90
2022-08-07T01:26:37.767Z,3.30
2022-08-07T01:29:40.777Z,3.75
2022-08-07T01:32:43.856Z,4.20
2022-08-07T01:35:54.230Z,3.60
2022-08-07T01:39:09.580Z,3.58
2022-08-07T01:42:37.646Z,3.53
2022-08-07T01:45:40.170Z,3.50
2022-08-07T01:48:50.192Z,3.88
2022-08-07T01:52:04.949Z,4.18
2022-08-07T01:55:22.466Z,3.70
2022-08-07T01:58:33.522Z,3.60
2022-08-07T02:01:59.998Z,4.47
2022-08-07T02:05:16.042Z,3.75
2022-08-07T02:08:39.199Z,3.97
2022-08-07T02:12:03.827Z,3.40
2022-08-07T02:15:12.812Z,3.43
2022-08-07T02:18:19.306Z,4.05
2022-08-07T02:21:22.586Z,3.13
2022-08-07T02:24:26.180Z,3.10
2022-08-07T02:27:34.654Z,3.42
2022-08-07T02:30:39.573Z,3.20
2022-08-07T02:34:03.689Z,3.40
2022-08-07T02:37:08.957Z,3.58
2022-08-07T02:40:30.774Z,3.70
2022-08-07T02:43:39.552Z,3.35
2022-08-07T02:46:46.858Z,3.23
2022-08-07T02:50:05.175Z,3.22
2022-08-07T02:53:18.080Z,3.42
2022-08-07T02:56:23.321Z,3.40
2022-08-07T02:59:32.352Z,3.47
2022-08-07T03:02:41.880Z,3.63
2022-08-07T03:05:58.400Z,3.63
2022-08-07T03:09:03.092Z,3.35
2022-08-07T03:12:08.085Z,3.47
2022-08-07T03:15:30.122Z,2.88
2022-08-07T03:18:45.522Z,3.40
2022-08-07T03:21:51.732Z,3.10
2022-08-07T03:24:56.542Z,3.00
2022-08-07T03:28:09.556Z,2.97
2022-08-07T03:31:42.098Z,3.05
2022-08-07T03:35:00.967Z,2.80
2022-08-07T03:38:17.315Z,3.08
2022-08-07T03:41:42.600Z,2.70
2022-08-07T03:44:53.355Z,3.05
2022-08-07T03:47:58.799Z,2.80
2022-08-07T03:51:03.610Z,2.63
2022-08-07T03:54:36.065Z,2.58
2022-08-07T03:58:33.366Z,3.00
2022-08-07T04:01:01.152Z,3.10
2022-08-07T04:04:06.916Z,2.75
2022-08-07T04:07:35.989Z,2.90
2022-08-07T04:10:34.235Z,2.85
2022-08-07T04:14:09.557Z,2.92
2022-08-07T04:17:21.212Z,3.10
2022-08-07T04:20:26.833Z,2.80
2022-08-07T04:23:43.501Z,2.87
2022-08-07T04:26:54.648Z,2.70
2022-08-07T04:30:02.760Z,3.30
2022-08-07T04:33:24.429Z,2.40
2022-08-07T04:36:28.774Z,3.03
2022-08-07T04:39:35.821Z,2.73
2022-08-07T04:42:40.003Z,2.58
2022-08-07T04:46:12.285Z,2.55
2022-08-07T04:49:47.414Z,3.03
2022-08-07T04:53:16.481Z,2.55
2022-08-07T04:58:13.924Z,2.80
2022-08-07T05:00:32.750Z,2.67
2022-08-07T05:04:07.654Z,2.60
2022-08-07T05:07:30.585Z,2.70
2022-08-07T05:10:43.520Z,2.78
2022-08-07T05:14:53.190Z,2.80
2022-08-07T05:17:52.994Z,2.60
2022-08-07T05:20:50.150Z,2.63
2022-08-07T05:24:02.515Z,2.88
2022-08-07T05:27:18.444Z,2.60
2022-08-07T05:30:35.267Z,2.40
2022-08-07T05:33:51.217Z,2.72
2022-08-07T05:37:05.698Z,2.33
2022-08-07T05:40:20.563Z,2.38
2022-08-07T05:43:50.014Z,2.50
2022-08-07T05:46:51.314Z,2.47
2022-08-07T05:49:59.353Z,2.60
2022-08-07T05:53:04.143Z,2.67
2022-08-07T05:56:09.506Z,2.50
2022-08-07T05:59:21.123Z,2.50
2022-08-07T06:02:31.331Z,2.40
2022-08-07T06:05:38.009Z,2.10
2022-08-07T06:08:46.675Z,2.50
2022-08-07T06:11:50.361Z,2.55
2022-08-07T06:14:59.602Z,2.40
2022-08-07T06:18:08.702Z,2.33
2022-08-07T06:22:15.683Z,2.35
2022-08-07T06:24:52.379Z,2.30
2022-08-07T06:28:08.081Z,1.90
2022-08-07T06:31:11.267Z,2.00
2022-08-07T06:34:13.852Z,2.10
2022-08-07T06:37:20.658Z,2.20
2022-08-07T06:40:27.835Z,2.40
2022-08-07T06:43:39.901Z,2.20
2022-08-07T06:46:53.374Z,1.95
2022-08-07T06:50:04.578Z,2.67
2022-08-07T06:53:18.674Z,2.13
2022-08-07T06:56:49.783Z,2.22
2022-08-07T07:00:13.924Z,2.22
2022-08-07T07:03:26.347Z,2.28
2022-08-07T07:06:57.643Z,2.10
2022-08-07T07:10:04.272Z,2.00
2022-08-07T07:13:11.184Z,2.08
2022-08-07T07:16:20.526Z,2.00
2022-08-07T07:19:55.123Z,2.15
2022-08-07T07:24:05.137Z,1.80
2022-08-07T07:26:34.176Z,2.28
2022-08-07T07:30:07.662Z,2.20
2022-08-07T07:33:13.865Z,1.95
2022-08-07T07:36:18.913Z,2.20
2022-08-07T07:39:25.702Z,2.10
2022-08-07T07:42:40.051Z,2.28
2022-08-07T07:46:37.676Z,2.17
2022-08-07T07:50:33.579Z,2.42
2022-08-07T07:52:35.001Z,1.90
2022-08-07T07:55:45.760Z,2.10
2022-08-07T07:58:59.905Z,2.00
2022-08-07T08:02:10.604Z,1.70
2022-08-07T08:05:16.488Z,2.15
2022-08-07T08:08:34.550Z,2.10
2022-08-07T08:11:59.812Z,1.97
2022-08-07T08:15:06.851Z,2.00
2022-08-07T08:18:17.869Z,2.00
2022-08-07T08:21:55.489Z,2.10
2022-08-07T08:25:27.013Z,2.10
2022-08-07T08:28:47.040Z,2.20
2022-08-07T08:31:58.643Z,2.33
2022-08-07T08:35:19.986Z,2.00
2022-08-07T08:38:29.956Z,1.90
2022-08-07T08:41:59.432Z,1.98
2022-08-07T08:45:21.452Z,1.87
2022-08-07T08:48:50.925Z,2.53
2022-08-07T08:52:14.494Z,2.33
2022-08-07T08:55:55.047Z,2.10
2022-08-07T08:59:30.550Z,1.85
2022-08-07T09:02:58.721Z,2.10
2022-08-07T09:06:18.084Z,2.20
2022-08-07T09:09:42.727Z,1.90
2022-08-07T09:13:36.778Z,2.20
2022-08-07T09:16:52.486Z,2.20
2022-08-07T09:20:34.647Z,2.37
2022-08-07T09:24:31.904Z,2.08
2022-08-07T09:27:59.563Z,2.10
2022-08-07T09:31:25.296Z,1.90
2022-08-07T09:34:53.791Z,1.90
2022-08-07T09:38:10.416Z,2.10
2022-08-07T09:41:16.173Z,2.15
2022-08-07T09:47:49.987Z,1.90
2022-08-07T09:48:56.112Z,2.38
2022-08-07T09:52:34.228Z,2.10
2022-08-07T09:56:19.738Z,2.00
2022-08-07T09:59:46.179Z,1.90
2022-08-07T10:04:05.372Z,2.10
2022-08-07T10:07:39.926Z,2.53
2022-08-07T10:11:59.144Z,1.92
2022-08-07T10:14:41.857Z,2.20
2022-08-07T10:18:11.013Z,2.10
2022-08-07T10:22:14.473Z,2.25
2022-08-07T10:25:07.609Z,2.00
2022-08-07T10:28:26.295Z,1.80
2022-08-07T10:31:45.203Z,1.90
2022-08-07T10:35:03.583Z,2.15
2022-08-07T10:38:42.162Z,1.90
2022-08-07T10:42:44.850Z,1.80
2022-08-07T10:45:57.589Z,1.90
2022-08-07T10:49:14.819Z,2.20
2022-08-07T10:52:40.172Z,1.85
2022-08-07T10:55:53.447Z,2.20
2022-08-07T10:59:30.319Z,2.03
2022-08-07T11:02:38.122Z,1.80
2022-08-07T11:05:57.659Z,2.10
2022-08-07T11:09:11.653Z,2.20
2022-08-07T11:12:40.466Z,1.90
2022-08-07T11:15:54.279Z,2.10
2022-08-07T11:19:27.090Z,1.60
2022-08-07T11:22:46.662Z,2.10
2022-08-07T11:26:06.400Z,1.73
2022-08-07T11:29:40.978Z,2.00
2022-08-07T11:32:45.273Z,1.83
2022-08-07T11:36:14.036Z,1.58
2022-08-07T11:39:26.158Z,1.90
2022-08-07T11:43:15.500Z,1.63
2022-08-07T11:46:38.109Z,2.15
2022-08-07T11:50:11.516Z,2.15
2022-08-07T11:53:37.184Z,1.98
2022-08-07T11:57:00.979Z,2.17
2022-08-07T12:00:19.104Z,1.88
2022-08-07T12:03:47.404Z,2.20
2022-08-07T12:07:02.398Z,1.65
2022-08-07T12:10:37.059Z,1.80
2022-08-07T12:13:57.194Z,1.90
2022-08-07T12:17:19.968Z,1.90
2022-08-07T12:20:36.554Z,2.10
2022-08-07T12:24:07.434Z,1.92
2022-08-07T12:27:18.619Z,2.10
2022-08-07T12:30:34.763Z,2.20
2022-08-07T12:34:01.281Z,1.90
2022-08-07T12:37:08.421Z,2.22
2022-08-07T12:40:47.446Z,1.70
2022-08-07T12:44:04.052Z,1.90
2022-08-07T12:47:21.810Z,1.80
2022-08-07T12:50:34.383Z,1.80
2022-08-07T12:54:36.921Z,2.22
2022-08-07T12:57:59.085Z,2.00
2022-08-07T13:01:14.505Z,1.88
2022-08-07T13:04:57.685Z,1.70
2022-08-07T13:08:19.310Z,1.95
2022-08-07T13:12:03.268Z,2.20
2022-08-07T13:15:59.273Z,2.20
2022-08-07T13:19:45.843Z,1.83
2022-08-07T13:24:01.797Z,1.97
2022-08-07T13:26:49.385Z,1.80
2022-08-07T13:30:18.963Z,2.40
2022-08-07T13:34:33.648Z,1.85
2022-08-07T13:37:32.265Z,2.25
2022-08-07T13:41:01.862Z,2.10
2022-08-07T13:44:10.541Z,2.17
2022-08-07T13:47:25.281Z,1.90
2022-08-07T13:50:36.633Z,2.22
2022-08-07T13:54:03.186Z,2.20
2022-08-07T13:57:14.655Z,2.30
2022-08-07T14:00:50.506Z,2.08
2022-08-07T14:04:06.929Z,1.88
2022-08-07T14:07:11.907Z,2.13
2022-08-07T14:10:24.531Z,2.10
2022-08-07T14:13:33.617Z,2.00
2022-08-07T14:16:45.049Z,2.22
2022-08-07T14:20:40.152Z,2.15
2022-08-07T14:23:59.298Z,2.40
2022-08-07T14:26:55.590Z,2.13
2022-08-07T14:30:08.107Z,2.20
2022-08-07T14:33:16.426Z,2.60
2022-08-07T14:36:26.869Z,2.42
2022-08-07T14:40:14.713Z,2.30
2022-08-07T14:43:58.699Z,2.22
2022-08-07T14:46:31.529Z,2.20
2022-08-07T14:53:07.730Z,2.30
2022-08-07T15:00:04.587Z,2.30
2022-08-07T15:03:19.619Z,2.37
2022-08-07T15:06:29.935Z,2.58
2022-08-07T15:09:57.475Z,2.33
2022-08-07T15:16:54.954Z,2.30
2022-08-07T15:25:15.378Z,2.30
2022-08-07T15:27:09.033Z,2.30
2022-08-07T15:30:16.088Z,2.20
2022-08-07T15:33:22.211Z,2.20
2022-08-07T15:40:04.085Z,2.42
2022-08-07T15:43:52.966Z,2.38
2022-08-07T15:46:51.642Z,2.22
2022-08-07T15:50:05.931Z,1.98
2022-08-07T15:53:52.994Z,2.27
2022-08-07T15:56:50.897Z,2.38
2022-08-07T15:59:56.830Z,2.28
2022-08-07T16:03:05.375Z,2.30
2022-08-07T16:06:09.572Z,2.20
2022-08-07T16:09:22.867Z,2.30
2022-08-07T16:12:38.974Z,2.28
2022-08-07T16:15:57.294Z,2.38
2022-08-07T16:19:21.018Z,2.20
2022-08-07T16:23:05.479Z,2.15
2022-08-07T16:26:30.746Z,1.97
2022-08-07T16:30:11.240Z,2.20
2022-08-07T16:34:01.653Z,2.00
2022-08-07T16:38:03.512Z,2.60
2022-08-07T16:41:02.159Z,2.13
2022-08-07T16:44:53.741Z,2.40
2022-08-07T16:48:28.652Z,2.25
2022-08-07T16:52:48.700Z,2.25
2022-08-07T16:55:47.494Z,2.55
2022-08-07T16:59:14.857Z,2.00
2022-08-07T17:02:53.004Z,2.20
2022-08-07T17:06:32.999Z,1.95
2022-08-07T17:10:07.381Z,1.90
2022-08-07T17:13:20.478Z,2.30
2022-08-07T17:16:29.483Z,2.15
2022-08-07T17:20:01.832Z,2.23
2022-08-07T17:23:31.906Z,2.20
2022-08-07T17:27:07.235Z,2.65
2022-08-07T17:30:19.806Z,2.10
2022-08-07T17:34:08.326Z,2.40
2022-08-07T17:37:09.617Z,2.30
2022-08-07T17:40:30.450Z,2.17
2022-08-07T17:44:01.307Z,2.10
2022-08-07T17:47:38.268Z,2.33
2022-08-07T17:51:05.609Z,2.10
2022-08-07T17:54:53.544Z,1.97
2022-08-07T17:58:04.220Z,2.20
2022-08-07T18:01:20.797Z,2.30
2022-08-07T18:04:49.023Z,1.90
2022-08-07T18:08:24.528Z,2.13
2022-08-07T18:12:20.000Z,1.93
2022-08-07T18:15:08.965Z,2.55
2022-08-07T18:18:46.373Z,2.40
2022-08-07T18:21:55.208Z,2.40
2022-08-07T18:25:19.378Z,2.30
2022-08-07T18:30:06.398Z,2.67
2022-08-07T18:32:46.723Z,2.67
2022-08-07T18:36:17.608Z,2.92
2022-08-07T18:40:05.522Z,2.13
2022-08-07T18:43:43.086Z,2.47
2022-08-07T18:47:22.481Z,2.17
2022-08-07T18:50:45.940Z,2.35
2022-08-07T18:54:06.022Z,2.22
2022-08-07T18:57:47.180Z,2.20
2022-08-07T19:02:32.205Z,2.30
2022-08-07T19:05:09.916Z,2.40
2022-08-07T19:08:23.947Z,2.80
2022-08-07T19:12:03.959Z,2.40
2022-08-07T19:16:04.759Z,2.30
2022-08-07T19:19:08.755Z,1.98
2022-08-07T19:22:30.277Z,1.93
2022-08-07T19:26:24.574Z,2.10
2022-08-07T19:30:55.949Z,2.30
2022-08-07T19:32:42.298Z,2.50
2022-08-07T19:35:57.204Z,2.50
2022-08-07T19:39:02.200Z,2.00
2022-08-07T19:42:34.849Z,2.00
2022-08-07T19:46:06.016Z,2.22
2022-08-07T19:49:13.077Z,2.10
2022-08-07T19:52:22.447Z,2.13
2022-08-07T19:55:56.395Z,2.40
2022-08-07T19:58:54.279Z,2.05
2022-08-07T20:02:01.707Z,2.30
2022-08-07T20:05:08.166Z,2.28
2022-08-07T20:08:16.737Z,2.17
2022-08-07T20:11:34.238Z,2.10
2022-08-07T20:14:53.774Z,2.10
2022-08-07T20:18:03.395Z,2.22
2022-08-07T20:21:14.856Z,2.10
2022-08-07T20:24:31.881Z,2.20
2022-08-07T20:27:47.519Z,2.00
2022-08-07T20:30:58.408Z,2.20
2022-08-07T20:34:01.812Z,2.28
2022-08-07T20:37:06.327Z,2.13
2022-08-07T20:40:32.829Z,2.10
2022-08-07T20:43:38.532Z,1.90
2022-08-07T20:47:05.499Z,1.92
2022-08-07T20:50:11.124Z,2.05
2022-08-07T20:53:15.963Z,1.70
2022-08-07T20:56:32.228Z,2.15
2022-08-07T21:00:05.494Z,1.90
2022-08-07T21:03:03.352Z,1.90
2022-08-07T21:06:22.293Z,1.90
2022-08-07T21:09:52.894Z,2.20
2022-08-07T21:13:00.385Z,2.08
2022-08-07T21:16:06.226Z,1.97
2022-08-07T21:19:13.955Z,1.88
2022-08-07T21:22:19.297Z,1.73
2022-08-07T21:25:56.826Z,1.80
2022-08-07T21:29:15.632Z,1.65
2022-08-07T21:32:55.500Z,2.00
2022-08-07T21:36:34.705Z,2.13
2022-08-07T21:39:59.686Z,2.00
2022-08-07T21:43:10.666Z,1.90
2022-08-07T21:46:31.627Z,1.70
2022-08-07T21:50:02.308Z,1.73
2022-08-07T21:53:13.502Z,2.03
2022-08-07T21:56:39.584Z,1.70
2022-08-07T22:00:20.444Z,1.70
2022-08-07T22:03:34.267Z,1.83
2022-08-07T22:06:54.291Z,1.80
2022-08-07T22:10:00.482Z,1.80
2022-08-07T22:13:13.743Z,1.60
2022-08-07T22:16:45.429Z,2.10
2022-08-07T22:20:10.661Z,1.75
2022-08-07T22:23:21.486Z,1.90
2022-08-07T22:27:02.157Z,1.90
2022-08-07T22:30:14.647Z,1.80
2022-08-07T22:33:17.870Z,1.70
2022-08-07T22:37:01.982Z,1.92
2022-08-07T22:40:14.622Z,1.90
2022-08-07T22:43:24.680Z,1.60
2022-08-07T22:47:06.097Z,1.60
2022-08-07T22:50:33.715Z,1.55
2022-08-07T22:54:05.285Z,1.65
2022-08-07T22:57:37.319Z,1.50
2022-08-07T23:01:24.119Z,1.60
2022-08-07T23:04:58.662Z,1.45
2022-08-07T23:08:23.952Z,1.55
2022-08-07T23:11:45.803Z,1.48
2022-08-07T23:16:05.696Z,1.50
2022-08-07T23:19:47.948Z,1.42
2022-08-07T23:24:05.568Z,1.52
2022-08-07T23:26:55.081Z,1.55
2022-08-07T23:30:39.637Z,1.60
2022-08-07T23:34:21.777Z,2.00
2022-08-07T23:38:00.746Z,1.70
2022-08-07T23:41:04.796Z,1.30
2022-08-07T23:44:29.449Z,1.63
2022-08-07T23:48:01.605Z,1.40
2022-08-07T23:52:58.928Z,1.50
2022-08-07T23:55:08.412Z,1.52
2022-08-07T23:58:21.191Z,1.60
